Аэропорт: Астана. Астана

ICAO: UACC

METAR:
2018/09/23 11:00
UACC 231100Z 34005MPS 310V010 9999 FEW043CB BKN060 14/06 Q1014 R04/25//60 NOSIG RMK QFE729/0972
METAR:
2018/09/23 06:43
TAF UACC 230500Z 2306/2406 32006MPS 9999 BKN010 OVC030 TX14/2310Z TN07/2324Z 
      TEMPO 2306/2315 5000 -SHRA SCT006 BKN010CB 
      TEMPO 2315/2321 3000 BR SCT005 BKN010 
      TEMPO 2321/2404 1000 BR SCT003 BKN010